TAF KOLF
KOLF 072320Z 0800/0824 VRB05KT P6SM BKN100 FM081500 VRB06KT P6SM BKN070 WS020/24035KT FM081800 VRB06KT P6SM BKN100=
METAR KOLF
WC KOLF
WS KOLF
WV KOLF